sensor_id;sensor_type;location;lat;lon;timestamp;pressure;altitude;pressure_sealevel;temperature;humidity
41898;BME280;27576;53.366;-1.498;2023-12-20T00:01:00;100275.69;;;6.49;100.00
41898;BME280;27576;53.366;-1.498;2023-12-20T00:03:26;100286.22;;;6.58;100.00
41898;BME280;27576;53.366;-1.498;2023-12-20T00:05:51;100266.00;;;6.40;100.00
41898;BME280;27576;53.366;-1.498;2023-12-20T00:08:17;100261.00;;;6.45;100.00
41898;BME280;27576;53.366;-1.498;2023-12-20T00:10:45;100188.69;;;6.04;100.00
41898;BME280;27576;53.366;-1.498;2023-12-20T00:13:11;100244.31;;;6.30;100.00
41898;BME280;27576;53.366;-1.498;2023-12-20T00:15:36;100280.91;;;6.52;100.00
41898;BME280;27576;53.366;-1.498;2023-12-20T00:18:02;100270.59;;;6.52;100.00
41898;BME280;27576;53.366;-1.498;2023-12-20T00:20:28;100282.03;;;6.61;100.00
41898;BME280;27576;53.366;-1.498;2023-12-20T00:22:56;100297.63;;;6.68;100.00
41898;BME280;27576;53.366;-1.498;2023-12-20T00:25:22;100255.78;;;6.43;100.00
41898;BME280;27576;53.366;-1.498;2023-12-20T00:27:47;100303.72;;;6.71;100.00
41898;BME280;27576;53.366;-1.498;2023-12-20T00:30:13;100266.28;;;6.51;100.00
41898;BME280;27576;53.366;-1.498;2023-12-20T00:32:38;100307.16;;;6.70;100.00
41898;BME280;27576;53.366;-1.498;2023-12-20T00:35:04;100295.13;;;6.69;100.00
41898;BME280;27576;53.366;-1.498;2023-12-20T00:37:29;100278.50;;;6.58;100.00
41898;BME280;27576;53.366;-1.498;2023-12-20T00:39:55;100290.84;;;6.71;100.00
41898;BME280;27576;53.366;-1.498;2023-12-20T00:42:21;100267.47;;;6.62;100.00
41898;BME280;27576;53.366;-1.498;2023-12-20T00:44:47;100241.31;;;6.47;100.00
41898;BME280;27576;53.366;-1.498;2023-12-20T00:47:12;100228.41;;;6.45;100.00
41898;BME280;27576;53.366;-1.498;2023-12-20T00:49:38;100276.88;;;6.61;100.00
41898;BME280;27576;53.366;-1.498;2023-12-20T00:52:04;100292.41;;;6.64;100.00
41898;BME280;27576;53.366;-1.498;2023-12-20T00:54:29;100305.50;;;6.72;100.00
41898;BME280;27576;53.366;-1.498;2023-12-20T00:56:55;100314.03;;;6.71;100.00
41898;BME280;27576;53.366;-1.498;2023-12-20T00:59:21;100281.22;;;6.64;100.00
41898;BME280;27576;53.366;-1.498;2023-12-20T01:01:46;100266.50;;;6.58;100.00
41898;BME280;27576;53.366;-1.498;2023-12-20T01:04:12;100282.94;;;6.63;100.00
41898;BME280;27576;53.366;-1.498;2023-12-20T01:06:37;100274.34;;;6.63;100.00
41898;BME280;27576;53.366;-1.498;2023-12-20T01:09:03;100281.41;;;6.70;100.00
41898;BME280;27576;53.366;-1.498;2023-12-20T01:11:28;100277.00;;;6.66;100.00
41898;BME280;27576;53.366;-1.498;2023-12-20T01:13:53;100243.34;;;6.60;100.00
41898;BME280;27576;53.366;-1.498;2023-12-20T01:16:19;100308.44;;;6.86;100.00
41898;BME280;27576;53.366;-1.498;2023-12-20T01:18:44;100273.69;;;6.72;100.00
41898;BME280;27576;53.366;-1.498;2023-12-20T01:21:10;100245.19;;;6.64;100.00
41898;BME280;27576;53.366;-1.498;2023-12-20T01:23:35;100242.59;;;6.64;100.00
41898;BME280;27576;53.366;-1.498;2023-12-20T01:26:01;100242.59;;;6.64;100.00
41898;BME280;27576;53.366;-1.498;2023-12-20T01:28:27;100265.22;;;6.76;100.00
41898;BME280;27576;53.366;-1.498;2023-12-20T01:30:53;100253.16;;;6.73;100.00
41898;BME280;27576;53.366;-1.498;2023-12-20T01:33:18;100227.78;;;6.55;100.00
41898;BME280;27576;53.366;-1.498;2023-12-20T01:35:43;100231.31;;;6.59;100.00
41898;BME280;27576;53.366;-1.498;2023-12-20T01:38:09;100266.34;;;6.85;100.00
41898;BME280;27576;53.366;-1.498;2023-12-20T01:40:34;100240.19;;;6.70;100.00
41898;BME280;27576;53.366;-1.498;2023-12-20T01:43:07;100267.25;;;6.87;100.00
41898;BME280;27576;53.366;-1.498;2023-12-20T01:45:33;100268.09;;;6.86;100.00
41898;BME280;27576;53.366;-1.498;2023-12-20T01:47:59;100252.59;;;6.85;100.00
41898;BME280;27576;53.366;-1.498;2023-12-20T01:50:26;100253.28;;;6.78;100.00
41898;BME280;27576;53.366;-1.498;2023-12-20T01:52:54;100233.41;;;6.72;100.00
41898;BME280;27576;53.366;-1.498;2023-12-20T01:55:23;100216.81;;;6.62;100.00
41898;BME280;27576;53.366;-1.498;2023-12-20T01:57:49;100233.44;;;6.74;100.00
41898;BME280;27576;53.366;-1.498;2023-12-20T02:00:16;100242.31;;;6.86;100.00
41898;BME280;27576;53.366;-1.498;2023-12-20T02:02:43;100232.59;;;6.75;100.00
41898;BME280;27576;53.366;-1.498;2023-12-20T02:05:10;100258.72;;;6.88;100.00
41898;BME280;27576;53.366;-1.498;2023-12-20T02:07:36;100199.56;;;6.58;100.00
41898;BME280;27576;53.366;-1.498;2023-12-20T02:10:04;100242.25;;;6.83;100.00
41898;BME280;27576;53.366;-1.498;2023-12-20T02:12:30;100245.56;;;6.79;100.00
41898;BME280;27576;53.366;-1.498;2023-12-20T02:14:55;100223.31;;;6.81;100.00
41898;BME280;27576;53.366;-1.498;2023-12-20T02:17:22;100233.75;;;6.87;100.00
41898;BME280;27576;53.366;-1.498;2023-12-20T02:19:47;100208.75;;;6.82;100.00
41898;BME280;27576;53.366;-1.498;2023-12-20T02:22:13;100182.66;;;6.68;100.00
41898;BME280;27576;53.366;-1.498;2023-12-20T02:24:38;100194.88;;;6.77;100.00
41898;BME280;27576;53.366;-1.498;2023-12-20T02:27:06;100206.19;;;6.83;100.00
41898;BME280;27576;53.366;-1.498;2023-12-20T02:29:35;100208.56;;;6.76;100.00
41898;BME280;27576;53.366;-1.498;2023-12-20T02:32:01;100165.19;;;6.56;100.00
41898;BME280;27576;53.366;-1.498;2023-12-20T02:34:28;100214.81;;;6.84;100.00
41898;BME280;27576;53.366;-1.498;2023-12-20T02:36:53;100193.81;;;6.69;100.00
41898;BME280;27576;53.366;-1.498;2023-12-20T02:39:19;100224.53;;;6.96;100.00
41898;BME280;27576;53.366;-1.498;2023-12-20T02:41:44;100223.53;;;6.91;100.00
41898;BME280;27576;53.366;-1.498;2023-12-20T02:44:10;100209.78;;;6.90;100.00
41898;BME280;27576;53.366;-1.498;2023-12-20T02:46:35;100226.16;;;6.92;100.00
41898;BME280;27576;53.366;-1.498;2023-12-20T02:49:00;100233.31;;;7.04;100.00
41898;BME280;27576;53.366;-1.498;2023-12-20T02:51:26;100211.59;;;6.93;100.00
41898;BME280;27576;53.366;-1.498;2023-12-20T02:53:51;100212.53;;;6.96;100.00
41898;BME280;27576;53.366;-1.498;2023-12-20T02:56:16;100210.75;;;6.94;100.00
41898;BME280;27576;53.366;-1.498;2023-12-20T02:58:42;100196.03;;;6.89;100.00
41898;BME280;27576;53.366;-1.498;2023-12-20T03:01:07;100198.69;;;6.93;100.00
41898;BME280;27576;53.366;-1.498;2023-12-20T03:03:33;100197.06;;;6.96;100.00
41898;BME280;27576;53.366;-1.498;2023-12-20T03:05:58;100198.69;;;6.93;100.00
41898;BME280;27576;53.366;-1.498;2023-12-20T03:08:24;100193.28;;;6.82;100.00
41898;BME280;27576;53.366;-1.498;2023-12-20T03:10:50;100203.69;;;6.86;100.00
41898;BME280;27576;53.366;-1.498;2023-12-20T03:13:15;100190.72;;;6.83;100.00
41898;BME280;27576;53.366;-1.498;2023-12-20T03:15:40;100203.69;;;6.86;100.00
41898;BME280;27576;53.366;-1.498;2023-12-20T03:18:06;100209.72;;;6.87;100.00
41898;BME280;27576;53.366;-1.498;2023-12-20T03:20:31;100189.06;;;6.84;100.00
41898;BME280;27576;53.366;-1.498;2023-12-20T03:23:02;100188.25;;;6.86;100.00
41898;BME280;27576;53.366;-1.498;2023-12-20T03:25:27;100207.13;;;6.87;100.00
41898;BME280;27576;53.366;-1.498;2023-12-20T03:27:53;100174.19;;;6.74;100.00
41898;BME280;27576;53.366;-1.498;2023-12-20T03:30:18;100178.47;;;6.73;100.00
41898;BME280;27576;53.366;-1.498;2023-12-20T03:32:44;100168.94;;;6.69;100.00
41898;BME280;27576;53.366;-1.498;2023-12-20T03:35:09;100210.56;;;6.87;100.00
41898;BME280;27576;53.366;-1.498;2023-12-20T03:37:35;100194.69;;;6.69;100.00
41898;BME280;27576;53.366;-1.498;2023-12-20T03:40:01;100208.63;;;6.77;100.00
41898;BME280;27576;53.366;-1.498;2023-12-20T03:42:28;100220.06;;;6.88;100.00
41898;BME280;27576;53.366;-1.498;2023-12-20T03:44:53;100206.91;;;6.78;100.00
41898;BME280;27576;53.366;-1.498;2023-12-20T03:47:19;100223.47;;;6.87;100.00
41898;BME280;27576;53.366;-1.498;2023-12-20T03:49:44;100201.78;;;6.79;100.00
41898;BME280;27576;53.366;-1.498;2023-12-20T03:52:09;100167.38;;;6.76;100.00
41898;BME280;27576;53.366;-1.498;2023-12-20T03:54:35;100228.78;;;6.94;100.00
41898;BME280;27576;53.366;-1.498;2023-12-20T03:57:01;100181.34;;;6.84;100.00
41898;BME280;27576;53.366;-1.498;2023-12-20T03:59:26;100182.88;;;6.77;100.00
41898;BME280;27576;53.366;-1.498;2023-12-20T04:01:53;100182.91;;;6.79;100.00
41898;BME280;27576;53.366;-1.498;2023-12-20T04:04:18;100174.31;;;6.78;100.00
41898;BME280;27576;53.366;-1.498;2023-12-20T04:06:44;100166.44;;;6.72;100.00
41898;BME280;27576;53.366;-1.498;2023-12-20T04:09:09;100176.09;;;6.81;100.00
41898;BME280;27576;53.366;-1.498;2023-12-20T04:11:35;100151.75;;;6.68;100.00
41898;BME280;27576;53.366;-1.498;2023-12-20T04:14:01;100218.47;;;6.94;100.00
41898;BME280;27576;53.366;-1.498;2023-12-20T04:16:26;100186.41;;;6.82;100.00
41898;BME280;27576;53.366;-1.498;2023-12-20T04:18:52;100156.00;;;6.66;100.00
41898;BME280;27576;53.366;-1.498;2023-12-20T04:21:17;100167.53;;;6.82;100.00
41898;BME280;27576;53.366;-1.498;2023-12-20T04:23:43;100179.91;;;6.97;100.00
41898;BME280;27576;53.366;-1.498;2023-12-20T04:26:09;100161.44;;;6.78;100.00
41898;BME280;27576;53.366;-1.498;2023-12-20T04:28:34;100141.75;;;6.80;100.00
41898;BME280;27576;53.366;-1.498;2023-12-20T04:30:59;100141.75;;;6.80;100.00
41898;BME280;27576;53.366;-1.498;2023-12-20T04:33:25;100129.69;;;6.79;100.00
41898;BME280;27576;53.366;-1.498;2023-12-20T04:35:50;100133.09;;;6.77;100.00
41898;BME280;27576;53.366;-1.498;2023-12-20T04:38:16;100144.44;;;6.85;100.00
41898;BME280;27576;53.366;-1.498;2023-12-20T04:40:42;100149.59;;;6.86;100.00
41898;BME280;27576;53.366;-1.498;2023-12-20T04:43:07;100132.34;;;6.82;100.00
41898;BME280;27576;53.366;-1.498;2023-12-20T04:45:34;100149.53;;;6.83;100.00
41898;BME280;27576;53.366;-1.498;2023-12-20T04:47:59;100161.53;;;6.83;100.00
41898;BME280;27576;53.366;-1.498;2023-12-20T04:50:25;100174.50;;;6.86;100.00
41898;BME280;27576;53.366;-1.498;2023-12-20T04:52:51;100192.72;;;6.94;100.00
41898;BME280;27576;53.366;-1.498;2023-12-20T04:55:16;100162.47;;;6.86;100.00
41898;BME280;27576;53.366;-1.498;2023-12-20T04:57:42;100179.66;;;6.87;100.00
41898;BME280;27576;53.366;-1.498;2023-12-20T05:00:08;100178.00;;;6.88;100.00
41898;BME280;27576;53.366;-1.498;2023-12-20T05:02:37;100198.72;;;6.94;100.00
41898;BME280;27576;53.366;-1.498;2023-12-20T05:05:02;100177.09;;;6.87;100.00
41898;BME280;27576;53.366;-1.498;2023-12-20T05:07:28;100181.47;;;6.90;100.00
41898;BME280;27576;53.366;-1.498;2023-12-20T05:09:53;100127.47;;;6.57;100.00
41898;BME280;27576;53.366;-1.498;2023-12-20T05:12:19;100142.16;;;6.62;100.00
41898;BME280;27576;53.366;-1.498;2023-12-20T05:14:45;100152.66;;;6.70;100.00
41898;BME280;27576;53.366;-1.498;2023-12-20T05:17:11;100168.97;;;6.71;100.00
41898;BME280;27576;53.366;-1.498;2023-12-20T05:19:36;100162.00;;;6.67;100.00
41898;BME280;27576;53.366;-1.498;2023-12-20T05:22:02;100188.88;;;6.76;100.00
41898;BME280;27576;53.366;-1.498;2023-12-20T05:24:28;100197.66;;;6.84;100.00
41898;BME280;27576;53.366;-1.498;2023-12-20T05:26:53;100155.16;;;6.67;100.00
41898;BME280;27576;53.366;-1.498;2023-12-20T05:29:19;100120.25;;;6.44;100.00
41898;BME280;27576;53.366;-1.498;2023-12-20T05:31:44;100136.03;;;6.57;100.00
41898;BME280;27576;53.366;-1.498;2023-12-20T05:34:09;100147.34;;;6.64;100.00
41898;BME280;27576;53.366;-1.498;2023-12-20T05:36:36;100177.53;;;6.70;100.00
41898;BME280;27576;53.366;-1.498;2023-12-20T05:39:01;100136.19;;;6.63;100.00
41898;BME280;27576;53.366;-1.498;2023-12-20T05:41:28;100152.69;;;6.72;100.00
41898;BME280;27576;53.366;-1.498;2023-12-20T05:43:54;100142.31;;;6.69;100.00
41898;BME280;27576;53.366;-1.498;2023-12-20T05:46:19;100144.06;;;6.70;100.00
41898;BME280;27576;53.366;-1.498;2023-12-20T05:48:46;100113.72;;;6.56;100.00
41898;BME280;27576;53.366;-1.498;2023-12-20T05:51:12;100113.75;;;6.59;100.00
41898;BME280;27576;53.366;-1.498;2023-12-20T05:53:38;100141.63;;;6.76;100.00
41898;BME280;27576;53.366;-1.498;2023-12-20T05:56:03;100105.16;;;6.57;100.00
41898;BME280;27576;53.366;-1.498;2023-12-20T05:58:29;100142.44;;;6.73;100.00
41898;BME280;27576;53.366;-1.498;2023-12-20T06:00:54;100149.47;;;6.80;100.00
41898;BME280;27576;53.366;-1.498;2023-12-20T06:03:20;100140.03;;;6.81;100.00
41898;BME280;27576;53.366;-1.498;2023-12-20T06:05:45;100156.72;;;6.97;100.00
41898;BME280;27576;53.366;-1.498;2023-12-20T06:08:11;100133.47;;;6.94;100.00
41898;BME280;27576;53.366;-1.498;2023-12-20T06:10:36;100110.63;;;6.71;100.00
41898;BME280;27576;53.366;-1.498;2023-12-20T06:13:02;100124.66;;;6.84;100.00
41898;BME280;27576;53.366;-1.498;2023-12-20T06:15:29;100135.88;;;6.87;100.00
41898;BME280;27576;53.366;-1.498;2023-12-20T06:17:54;100162.75;;;6.97;100.00
41898;BME280;27576;53.366;-1.498;2023-12-20T06:20:20;100180.09;;;7.04;100.00
41898;BME280;27576;53.366;-1.498;2023-12-20T06:22:46;100143.78;;;6.95;100.00
41898;BME280;27576;53.366;-1.498;2023-12-20T06:25:12;100123.72;;;6.80;100.00
41898;BME280;27576;53.366;-1.498;2023-12-20T06:27:37;100137.69;;;6.92;100.00
41898;BME280;27576;53.366;-1.498;2023-12-20T06:30:03;100171.34;;;6.99;100.00
41898;BME280;27576;53.366;-1.498;2023-12-20T06:32:28;100160.88;;;6.92;100.00
41898;BME280;27576;53.366;-1.498;2023-12-20T06:34:54;100153.16;;;6.92;100.00
41898;BME280;27576;53.366;-1.498;2023-12-20T06:37:20;100162.66;;;6.94;100.00
41898;BME280;27576;53.366;-1.498;2023-12-20T06:39:45;100159.25;;;6.95;100.00
41898;BME280;27576;53.366;-1.498;2023-12-20T06:42:12;100137.53;;;6.84;100.00
41898;BME280;27576;53.366;-1.498;2023-12-20T06:44:38;100157.50;;;6.93;100.00
41898;BME280;27576;53.366;-1.498;2023-12-20T06:47:04;100151.34;;;6.87;100.00
41898;BME280;27576;53.366;-1.498;2023-12-20T06:49:29;100175.72;;;7.02;100.00
41898;BME280;27576;53.366;-1.498;2023-12-20T06:51:55;100132.97;;;6.72;100.00
41898;BME280;27576;53.366;-1.498;2023-12-20T06:54:20;100153.09;;;6.88;100.00
41898;BME280;27576;53.366;-1.498;2023-12-20T06:56:46;100168.84;;;7.01;100.00
41898;BME280;27576;53.366;-1.498;2023-12-20T06:59:11;100171.19;;;6.92;100.00
41898;BME280;27576;53.366;-1.498;2023-12-20T07:01:37;100137.22;;;6.70;100.00
41898;BME280;27576;53.366;-1.498;2023-12-20T07:04:03;100170.97;;;6.82;100.00
41898;BME280;27576;53.366;-1.498;2023-12-20T07:06:28;100184.88;;;6.89;100.00
41898;BME280;27576;53.366;-1.498;2023-12-20T07:08:54;100147.66;;;6.76;100.00
41898;BME280;27576;53.366;-1.498;2023-12-20T07:11:19;100157.03;;;6.74;100.00
41898;BME280;27576;53.366;-1.498;2023-12-20T07:13:44;100185.84;;;6.94;100.00
41898;BME280;27576;53.366;-1.498;2023-12-20T07:16:10;100179.84;;;6.94;100.00
41898;BME280;27576;53.366;-1.498;2023-12-20T07:18:36;100070.38;;;6.38;100.00
41898;BME280;27576;53.366;-1.498;2023-12-20T07:21:01;100158.94;;;6.81;100.00
41898;BME280;27576;53.366;-1.498;2023-12-20T07:23:27;100149.47;;;6.80;100.00
41898;BME280;27576;53.366;-1.498;2023-12-20T07:25:52;100152.19;;;6.86;100.00
41898;BME280;27576;53.366;-1.498;2023-12-20T07:28:17;100134.53;;;6.67;100.00
41898;BME280;27576;53.366;-1.498;2023-12-20T07:30:43;100164.97;;;6.83;100.00
41898;BME280;27576;53.366;-1.498;2023-12-20T07:33:08;100155.41;;;6.78;100.00
41898;BME280;27576;53.366;-1.498;2023-12-20T07:35:34;100177.19;;;6.91;100.00
41898;BME280;27576;53.366;-1.498;2023-12-20T07:38:00;100171.81;;;6.81;100.00
41898;BME280;27576;53.366;-1.498;2023-12-20T07:40:25;100138.66;;;6.59;100.00
41898;BME280;27576;53.366;-1.498;2023-12-20T07:42:51;100175.81;;;6.70;100.00
41898;BME280;27576;53.366;-1.498;2023-12-20T07:45:16;100156.75;;;6.62;100.00
41898;BME280;27576;53.366;-1.498;2023-12-20T07:47:41;100181.00;;;6.72;100.00
41898;BME280;27576;53.366;-1.498;2023-12-20T07:50:07;100195.69;;;6.76;100.00
41898;BME280;27576;53.366;-1.498;2023-12-20T07:52:32;100169.81;;;6.70;100.00
41898;BME280;27576;53.366;-1.498;2023-12-20T07:54:58;100177.44;;;6.65;100.00
41898;BME280;27576;53.366;-1.498;2023-12-20T07:57:23;100186.22;;;6.73;100.00
41898;BME280;27576;53.366;-1.498;2023-12-20T07:59:49;100201.13;;;6.86;100.00
41898;BME280;27576;53.366;-1.498;2023-12-20T08:02:14;100178.41;;;6.70;100.00
41898;BME280;27576;53.366;-1.498;2023-12-20T08:04:40;100159.41;;;6.65;100.00
41898;BME280;27576;53.366;-1.498;2023-12-20T08:07:06;100132.44;;;6.51;100.00
41898;BME280;27576;53.366;-1.498;2023-12-20T08:09:32;100184.91;;;6.91;100.00
41898;BME280;27576;53.366;-1.498;2023-12-20T08:11:58;100172.41;;;6.71;100.00
41898;BME280;27576;53.366;-1.498;2023-12-20T08:14:25;100200.22;;;6.84;100.00
41898;BME280;27576;53.366;-1.498;2023-12-20T08:16:50;100190.69;;;6.80;100.00
41898;BME280;27576;53.366;-1.498;2023-12-20T08:19:16;100157.88;;;6.73;100.00
41898;BME280;27576;53.366;-1.498;2023-12-20T08:21:42;100175.06;;;6.74;100.00
41898;BME280;27576;53.366;-1.498;2023-12-20T08:24:08;100169.91;;;6.74;100.00
41898;BME280;27576;53.366;-1.498;2023-12-20T08:26:33;100231.72;;;7.09;100.00
41898;BME280;27576;53.366;-1.498;2023-12-20T08:28:59;100190.09;;;6.92;100.00
41898;BME280;27576;53.366;-1.498;2023-12-20T08:31:24;100201.13;;;6.86;100.00
41898;BME280;27576;53.366;-1.498;2023-12-20T08:33:51;100190.97;;;6.93;100.00
41898;BME280;27576;53.366;-1.498;2023-12-20T08:36:18;100203.34;;;7.07;100.00
41898;BME280;27576;53.366;-1.498;2023-12-20T08:38:44;100167.88;;;6.96;100.00
41898;BME280;27576;53.366;-1.498;2023-12-20T08:41:10;100183.34;;;6.97;100.00
41898;BME280;27576;53.366;-1.498;2023-12-20T08:43:35;100178.22;;;6.99;100.00
41898;BME280;27576;53.366;-1.498;2023-12-20T08:46:01;100202.63;;;7.14;100.00
41898;BME280;27576;53.366;-1.498;2023-12-20T08:48:28;100186.22;;;7.09;100.00
41898;BME280;27576;53.366;-1.498;2023-12-20T08:50:54;100214.03;;;7.24;100.00
41898;BME280;27576;53.366;-1.498;2023-12-20T08:53:19;100200.88;;;7.12;100.00
41898;BME280;27576;53.366;-1.498;2023-12-20T08:55:45;100204.63;;;7.26;100.00
41898;BME280;27576;53.366;-1.498;2023-12-20T08:58:11;100229.53;;;7.26;100.00
41898;BME280;27576;53.366;-1.498;2023-12-20T09:00:36;100201.00;;;7.18;100.00
41898;BME280;27576;53.366;-1.498;2023-12-20T09:03:02;100186.13;;;7.06;100.00
41898;BME280;27576;53.366;-1.498;2023-12-20T09:05:27;100179.06;;;6.98;100.00
41898;BME280;27576;53.366;-1.498;2023-12-20T09:07:53;100197.34;;;7.08;100.00
41898;BME280;27576;53.366;-1.498;2023-12-20T09:10:19;100198.41;;;7.17;100.00
41898;BME280;27576;53.366;-1.498;2023-12-20T09:12:51;100175.81;;;7.06;100.00
41898;BME280;27576;53.366;-1.498;2023-12-20T09:15:18;100182.00;;;7.13;100.00
41898;BME280;27576;53.366;-1.498;2023-12-20T09:17:44;100190.78;;;7.21;100.00
41898;BME280;27576;53.366;-1.498;2023-12-20T09:20:09;100191.63;;;7.20;100.00
41898;BME280;27576;53.366;-1.498;2023-12-20T09:22:36;100193.44;;;7.24;100.00
41898;BME280;27576;53.366;-1.498;2023-12-20T09:25:04;100200.81;;;7.47;100.00
41898;BME280;27576;53.366;-1.498;2023-12-20T09:27:29;100168.59;;;7.28;100.00
41898;BME280;27576;53.366;-1.498;2023-12-20T09:29:55;100185.22;;;7.42;100.00
41898;BME280;27576;53.366;-1.498;2023-12-20T09:32:20;100177.38;;;7.37;100.00
41898;BME280;27576;53.366;-1.498;2023-12-20T09:34:47;100176.53;;;7.38;100.00
41898;BME280;27576;53.366;-1.498;2023-12-20T09:37:13;100179.19;;;7.40;100.00
41898;BME280;27576;53.366;-1.498;2023-12-20T09:39:38;100169.59;;;7.34;100.00
41898;BME280;27576;53.366;-1.498;2023-12-20T09:42:05;100187.06;;;7.48;100.00
41898;BME280;27576;53.366;-1.498;2023-12-20T09:44:31;100149.63;;;7.26;100.00
41898;BME280;27576;53.366;-1.498;2023-12-20T09:46:58;100185.13;;;7.37;100.00
41898;BME280;27576;53.366;-1.498;2023-12-20T09:49:25;100154.84;;;7.27;100.00
41898;BME280;27576;53.366;-1.498;2023-12-20T09:51:54;100172.06;;;7.30;100.00
41898;BME280;27576;53.366;-1.498;2023-12-20T09:54:21;100144.56;;;7.29;100.00
41898;BME280;27576;53.366;-1.498;2023-12-20T09:56:47;100141.22;;;7.33;100.00
41898;BME280;27576;53.366;-1.498;2023-12-20T09:59:13;100177.63;;;7.48;100.00
41898;BME280;27576;53.366;-1.498;2023-12-20T10:01:40;100140.41;;;7.35;100.00
41898;BME280;27576;53.366;-1.498;2023-12-20T10:04:07;100135.19;;;7.32;100.00
41898;BME280;27576;53.366;-1.498;2023-12-20T10:06:43;100150.91;;;7.45;100.00
41898;BME280;27576;53.366;-1.498;2023-12-20T10:09:11;100169.28;;;7.58;100.00
41898;BME280;27576;53.366;-1.498;2023-12-20T10:11:38;100131.75;;;7.33;100.00
41898;BME280;27576;53.366;-1.498;2023-12-20T10:14:04;100126.69;;;7.36;100.00
41898;BME280;27576;53.366;-1.498;2023-12-20T10:16:30;100167.66;;;7.63;100.00
41898;BME280;27576;53.366;-1.498;2023-12-20T10:18:56;100139.06;;;7.53;100.00
41898;BME280;27576;53.366;-1.498;2023-12-20T10:21:22;100134.84;;;7.58;100.00
41898;BME280;27576;53.366;-1.498;2023-12-20T10:23:49;100153.22;;;7.73;100.00
41898;BME280;27576;53.366;-1.498;2023-12-20T10:26:21;100141.25;;;7.75;100.00
41898;BME280;27576;53.366;-1.498;2023-12-20T10:28:52;100130.00;;;7.73;100.00
41898;BME280;27576;53.366;-1.498;2023-12-20T10:31:30;100132.72;;;7.81;100.00
41898;BME280;27576;53.366;-1.498;2023-12-20T10:33:59;100131.09;;;7.84;100.00
41898;BME280;27576;53.366;-1.498;2023-12-20T10:36:30;100132.00;;;7.86;100.00
41898;BME280;27576;53.366;-1.498;2023-12-20T10:38:57;100121.56;;;7.82;100.00
41898;BME280;27576;53.366;-1.498;2023-12-20T10:41:41;100074.91;;;7.70;100.00
41898;BME280;27576;53.366;-1.498;2023-12-20T10:44:08;100096.78;;;7.88;100.00
41898;BME280;27576;53.366;-1.498;2023-12-20T10:46:36;100056.84;;;7.68;100.00
41898;BME280;27576;53.366;-1.498;2023-12-20T10:49:04;100036.13;;;7.63;100.00
41898;BME280;27576;53.366;-1.498;2023-12-20T10:51:31;100075.28;;;7.90;100.00
41898;BME280;27576;53.366;-1.498;2023-12-20T10:53:56;100083.16;;;7.96;100.00
41898;BME280;27576;53.366;-1.498;2023-12-20T10:56:22;100084.88;;;7.97;100.00
41898;BME280;27576;53.366;-1.498;2023-12-20T10:58:51;100083.16;;;7.97;100.00
41898;BME280;27576;53.366;-1.498;2023-12-20T11:01:18;100072.81;;;7.96;100.00
41898;BME280;27576;53.366;-1.498;2023-12-20T11:03:51;100067.78;;;8.02;100.00
41898;BME280;27576;53.366;-1.498;2023-12-20T11:09:06;100048.81;;;8.00;100.00
41898;BME280;27576;53.366;-1.498;2023-12-20T11:11:45;100060.00;;;8.00;100.00
41898;BME280;27576;53.366;-1.498;2023-12-20T11:14:20;99985.63;;;7.75;100.00
41898;BME280;27576;53.366;-1.498;2023-12-20T11:16:47;100015.13;;;7.92;100.00
41898;BME280;27576;53.366;-1.498;2023-12-20T11:19:13;99973.66;;;7.81;100.00
41898;BME280;27576;53.366;-1.498;2023-12-20T11:21:41;99992.06;;;8.00;100.00
41898;BME280;27576;53.366;-1.498;2023-12-20T11:24:07;99996.59;;;8.16;100.00
41898;BME280;27576;53.366;-1.498;2023-12-20T11:26:32;99979.41;;;8.15;100.00
41898;BME280;27576;53.366;-1.498;2023-12-20T11:31:56;99948.47;;;8.18;100.00
41898;BME280;27576;53.366;-1.498;2023-12-20T11:34:21;99975.41;;;8.35;100.00
41898;BME280;27576;53.366;-1.498;2023-12-20T11:36:47;99956.56;;;8.40;100.00
41898;BME280;27576;53.366;-1.498;2023-12-20T11:39:20;99934.91;;;8.33;100.00
41898;BME280;27576;53.366;-1.498;2023-12-20T11:41:46;99919.41;;;8.33;100.00
41898;BME280;27576;53.366;-1.498;2023-12-20T11:44:11;99922.03;;;8.34;100.00
41898;BME280;27576;53.366;-1.498;2023-12-20T11:46:37;99936.81;;;8.43;100.00
41898;BME280;27576;53.366;-1.498;2023-12-20T11:49:03;99936.94;;;8.51;100.00
41898;BME280;27576;53.366;-1.498;2023-12-20T11:51:28;99908.22;;;8.32;100.00
41898;BME280;27576;53.366;-1.498;2023-12-20T11:53:53;99892.91;;;8.42;100.00
41898;BME280;27576;53.366;-1.498;2023-12-20T11:56:19;99865.97;;;8.24;100.00
41898;BME280;27576;53.366;-1.498;2023-12-20T11:58:45;99898.13;;;8.48;100.00
41898;BME280;27576;53.366;-1.498;2023-12-20T12:01:11;99882.75;;;8.54;100.00
41898;BME280;27576;53.366;-1.498;2023-12-20T12:03:36;99832.69;;;8.43;100.00
41898;BME280;27576;53.366;-1.498;2023-12-20T12:06:03;99859.56;;;8.58;100.00
41898;BME280;27576;53.366;-1.498;2023-12-20T12:08:29;99857.84;;;8.60;100.00
41898;BME280;27576;53.366;-1.498;2023-12-20T12:10:55;99844.81;;;8.50;100.00
41898;BME280;27576;53.366;-1.498;2023-12-20T12:13:21;99856.97;;;8.60;100.00
41898;BME280;27576;53.366;-1.498;2023-12-20T12:15:48;99832.78;;;8.52;100.00
41898;BME280;27576;53.366;-1.498;2023-12-20T12:18:16;99856.88;;;8.49;100.00
41898;BME280;27576;53.366;-1.498;2023-12-20T12:20:42;99837.13;;;8.53;100.00
41898;BME280;27576;53.366;-1.498;2023-12-20T12:23:07;99835.31;;;8.46;100.00
41898;BME280;27576;53.366;-1.498;2023-12-20T12:25:35;99857.03;;;8.63;100.00
41898;BME280;27576;53.366;-1.498;2023-12-20T12:28:01;99808.63;;;8.47;100.00
41898;BME280;27576;53.366;-1.498;2023-12-20T12:30:27;99808.81;;;8.62;100.00
41898;BME280;27576;53.366;-1.498;2023-12-20T12:32:53;99856.34;;;8.78;100.00
41898;BME280;27576;53.366;-1.498;2023-12-20T12:35:19;99846.03;;;8.82;100.00
41898;BME280;27576;53.366;-1.498;2023-12-20T12:37:44;99854.69;;;8.88;100.00
41898;BME280;27576;53.366;-1.498;2023-12-20T12:40:11;99866.72;;;8.84;100.00